Sabahat Telli — TCSQ6 — position and weather

sailwx.info

Track history (hours):
 
Tides and Currents Weather Stations Pressure Air Temp Water Temp Dewpoint Dewpoint Depression Visibility Wind Speed Wind Dir Waves Ship Positions

Sabahat Telli

Last reported at 2014-Oct-14 21:25 UTC. Time now 2014-Oct-25 06:19 UTC.
Position N 43°42' E 035°53'.
Warning: this ship's position is 10 days out of date.

Length 99 m; draft 4.2 m.

Type: Tanker. MMSI: 271000961.

Date/timePositionNaut miles runAvg speedWind from/ knotsBaromVisibWave heightAir tempDewpointWater temp
2014-Oct-14 21:25N 43°42' E 035°53'8 7.8
2014-Oct-14 20:25N 43°49' E 035°57'7 7.7
2014-Oct-14 19:33N 43°55' E 035°60'8 7.7
2014-Oct-14 18:28N 44°03' E 036°04'7 7.8
2014-Oct-14 17:33N 44°09' E 036°08'8 7.8
2014-Oct-14 16:34N 44°17' E 036°12'8 7.9
2014-Oct-14 15:33N 44°24' E 036°16'8 7.8
2014-Oct-14 14:33N 44°31' E 036°20'16 7.6
2014-Oct-14 12:30N 44°45' E 036°29'8 0.3
2014-Oct-13 13:12N 44°53' E 036°31'2111.5
2014-Oct-13 11:23N 44°35' E 036°17'1011.6
2014-Oct-13 10:33N 44°27' E 036°09'1211.7
2014-Oct-13 09:33N 44°17' E 036°01'1211.7
2014-Oct-13 08:33N 44°08' E 035°51'1212.0
2014-Oct-13 07:33N 43°58' E 035°41'1312.2
2014-Oct-13 06:28N 43°48' E 035°30'1312.3
2014-Oct-13 05:25N 43°37' E 035°19'1212.4
2014-Oct-13 04:28N 43°28' E 035°09'  
2014-Oct-10 14:30N 43°36' E 034°01'4 4.2
2014-Oct-10 13:26N 43°41' E 034°02'1 1.0
2014-Oct-10 12:33N 43°41' E 034°03'241 8.9
2014-Oct-09 09:32N 41°26' E 029°32'1212.4
2014-Oct-09 08:33N 41°19' E 029°19'24 9.9
2014-Oct-09 06:07N 40°60' E 028°60'6 9.8
2014-Oct-09 05:33N 40°56' E 028°54'2 1.3
2014-Oct-09 04:15N 40°57' E 028°52'0 0.0
2014-Oct-09 03:25N 40°57' E 028°52'0 0.0
2014-Oct-09 01:33N 40°57' E 028°52'4 3.7
2014-Oct-09 00:28N 40°55' E 028°57'1112.2
2014-Oct-08 23:33N 40°47' E 029°07'1212.1
2014-Oct-08 22:32N 40°45' E 029°24'  
2014-Oct-04 22:06N 44°00' E 034°49'  
Track history (hours):
 
Tides and Currents Weather Stations Pressure Air Temp Water Temp Dewpoint Dewpoint Depression Visibility Wind Speed Wind Dir Waves Ship Positions

Sabahat Telli

Last reported at 2014-Oct-14 21:25 UTC. Time now 2014-Oct-25 06:19 UTC.
Position N 43°42' E 035°53'.
Warning: this ship's position is 10 days out of date.

Length 99 m; draft 4.2 m.

Type: Tanker. MMSI: 271000961.

Date/timePositionNaut miles runAvg speedWind from/ knotsBaromVisibWave heightAir tempDewpointWater temp
2014-Oct-14 21:25N 43°42' E 035°53'8 7.8
2014-Oct-14 20:25N 43°49' E 035°57'7 7.7
2014-Oct-14 19:33N 43°55' E 035°60'8 7.7
2014-Oct-14 18:28N 44°03' E 036°04'7 7.8
2014-Oct-14 17:33N 44°09' E 036°08'8 7.8
2014-Oct-14 16:34N 44°17' E 036°12'8 7.9
2014-Oct-14 15:33N 44°24' E 036°16'8 7.8
2014-Oct-14 14:33N 44°31' E 036°20'16 7.6
2014-Oct-14 12:30N 44°45' E 036°29'8 0.3
2014-Oct-13 13:12N 44°53' E 036°31'2111.5
2014-Oct-13 11:23N 44°35' E 036°17'1011.6
2014-Oct-13 10:33N 44°27' E 036°09'1211.7
2014-Oct-13 09:33N 44°17' E 036°01'1211.7
2014-Oct-13 08:33N 44°08' E 035°51'1212.0
2014-Oct-13 07:33N 43°58' E 035°41'1312.2
2014-Oct-13 06:28N 43°48' E 035°30'1312.3
2014-Oct-13 05:25N 43°37' E 035°19'1212.4
2014-Oct-13 04:28N 43°28' E 035°09'  
2014-Oct-10 14:30N 43°36' E 034°01'4 4.2
2014-Oct-10 13:26N 43°41' E 034°02'1 1.0
2014-Oct-10 12:33N 43°41' E 034°03'241 8.9
2014-Oct-09 09:32N 41°26' E 029°32'1212.4
2014-Oct-09 08:33N 41°19' E 029°19'24 9.9
2014-Oct-09 06:07N 40°60' E 028°60'6 9.8
2014-Oct-09 05:33N 40°56' E 028°54'2 1.3
2014-Oct-09 04:15N 40°57' E 028°52'0 0.0
2014-Oct-09 03:25N 40°57' E 028°52'0 0.0
2014-Oct-09 01:33N 40°57' E 028°52'4 3.7
2014-Oct-09 00:28N 40°55' E 028°57'1112.2
2014-Oct-08 23:33N 40°47' E 029°07'1212.1
2014-Oct-08 22:32N 40°45' E 029°24'  
2014-Oct-04 22:06N 44°00' E 034°49'  

Dump ship's entire track history